Delta Virtual Airport Information Service

San Jose del Cabo Los Cabos International Airport

ICAO: MMSD Country: Mexico
Latitude: 23.1518 Longitude: -109.721
Latest Arrival : DAL7264071 (KSLC-MMSD) Latest Departure : DAL7264071 (MMSD-KSLC)


WX CaptureLIVE
Data provided by noaa.gov | Fetched at 17:26:06

METAR : MMSD 242145Z 12012KT 12SM SKC 30/07 A2983

TAF : MMSD 241646Z 2418/2518 13010KT P6SM SKC FM250300 33005KT P6SM SCT240


Runway Data for MMSD
Data provided by openaviationdata.com

Runway ID Mag Var Hdg Length Elevation Surface ILS Freq ILS Id ILS Slope
16 10 164° 9838 ft 374 ft Asphalt -- -- --
34 10 344° 9838 ft 374 ft Asphalt -- -- --

San Jose del Cabo Los Cabos International Airport, Mexico
Use only for reference purposes



Not for navigational purposes.